createdAt,value
2022-11-28T00:01:09.278Z,98369.31
2022-11-28T00:07:07.655Z,98379.31
2022-11-28T00:10:19.860Z,98389.34
2022-11-28T00:13:35.046Z,98390.63
2022-11-28T00:16:43.379Z,98404.25
2022-11-28T00:19:42.978Z,98404.25
2022-11-28T00:22:54.013Z,98397.78
2022-11-28T00:25:45.764Z,98392.66
2022-11-28T00:28:18.240Z,98388.69
2022-11-28T00:30:52.730Z,98401.19
2022-11-28T00:33:37.835Z,98403.59
2022-11-28T00:36:18.429Z,98391.41
2022-11-28T00:38:51.535Z,98392.81
2022-11-28T00:42:01.895Z,98366.75
2022-11-28T00:45:03.899Z,98376.94
2022-11-28T00:47:52.349Z,98376.41
2022-11-28T00:50:38.562Z,98394.28
2022-11-28T00:53:34.028Z,98423.34
2022-11-28T00:56:14.701Z,98429.50
2022-11-28T00:59:18.241Z,98410.50
2022-11-28T01:02:05.190Z,98421.16
2022-11-28T01:04:54.245Z,98429.03
2022-11-28T01:08:01.368Z,98430.88
2022-11-28T01:10:38.904Z,98418.66
2022-11-28T01:13:21.523Z,98432.41
2022-11-28T01:15:51.299Z,98444.56
2022-11-28T01:18:31.060Z,98449.16
2022-11-28T01:21:23.158Z,98444.97
2022-11-28T01:28:02.243Z,98437.81
2022-11-28T01:31:13.354Z,98435.75
2022-11-28T01:41:50.573Z,98464.94
2022-11-28T01:44:50.443Z,98465.34
2022-11-28T01:47:39.399Z,98455.69
2022-11-28T01:50:13.555Z,98466.97
2022-11-28T01:52:49.669Z,98469.16
2022-11-28T01:55:28.171Z,98474.59
2022-11-28T01:58:05.678Z,98477.56
2022-11-28T02:00:39.228Z,98481.84
2022-11-28T02:03:17.428Z,98469.94
2022-11-28T02:05:49.599Z,98471.09
2022-11-28T02:08:20.973Z,98459.75
2022-11-28T02:11:19.290Z,98466.75
2022-11-28T02:14:10.137Z,98471.56
2022-11-28T02:17:17.199Z,98473.47
2022-11-28T02:20:09.459Z,98485.13
2022-11-28T02:22:39.174Z,98485.28
2022-11-28T02:25:14.560Z,98475.78
2022-11-28T02:28:31.424Z,98499.91
2022-11-28T02:31:26.580Z,98496.75
2022-11-28T02:34:14.328Z,98499.78
2022-11-28T02:37:44.000Z,98493.53
2022-11-28T02:40:49.213Z,98496.19
2022-11-28T02:43:26.406Z,98495.13
2022-11-28T02:46:03.095Z,98488.69
2022-11-28T02:48:57.225Z,98490.31
2022-11-28T02:51:30.350Z,98494.31
2022-11-28T02:54:04.834Z,98494.69
2022-11-28T02:56:35.260Z,98502.28
2022-11-28T02:59:33.334Z,98502.00
2022-11-28T03:02:05.194Z,98503.41
2022-11-28T03:05:07.031Z,98503.66
2022-11-28T03:08:01.451Z,98501.47
2022-11-28T03:10:45.196Z,98499.03
2022-11-28T03:13:47.101Z,98506.22
2022-11-28T03:16:31.300Z,98509.78
2022-11-28T03:19:07.168Z,98518.50
2022-11-28T03:22:01.493Z,98522.84
2022-11-28T03:24:52.318Z,98516.59
2022-11-28T03:27:41.844Z,98517.44
2022-11-28T03:30:36.332Z,98523.09
2022-11-28T03:33:07.609Z,98520.94
2022-11-28T03:35:47.008Z,98519.63
2022-11-28T03:38:41.789Z,98529.34
2022-11-28T03:41:29.038Z,98515.00
2022-11-28T03:44:02.403Z,98518.78
2022-11-28T03:46:43.321Z,98522.88
2022-11-28T03:49:18.142Z,98526.66
2022-11-28T03:52:05.489Z,98533.91
2022-11-28T03:54:44.828Z,98537.97
2022-11-28T03:57:26.822Z,98534.22
2022-11-28T04:00:01.010Z,98526.09
2022-11-28T04:03:23.149Z,98530.56
2022-11-28T04:06:29.771Z,98538.50
2022-11-28T04:09:10.094Z,98541.28
2022-11-28T04:12:00.756Z,98551.00
2022-11-28T04:14:48.365Z,98558.00
2022-11-28T04:17:38.830Z,98563.41
2022-11-28T04:20:18.240Z,98564.47
2022-11-28T04:23:02.386Z,98553.69
2022-11-28T04:25:36.613Z,98562.06
2022-11-28T04:28:11.039Z,98558.00
2022-11-28T04:30:46.289Z,98550.97
2022-11-28T04:33:21.573Z,98561.22
2022-11-28T04:35:54.767Z,98562.59
2022-11-28T04:38:30.633Z,98562.34
2022-11-28T04:41:24.475Z,98568.31
2022-11-28T04:44:04.455Z,98575.34
2022-11-28T04:46:41.306Z,98563.97
2022-11-28T04:55:02.492Z,98568.28
2022-11-28T04:58:07.160Z,98572.34
2022-11-28T05:00:39.295Z,98565.59
2022-11-28T05:03:17.280Z,98557.47
2022-11-28T05:05:55.358Z,98551.50
2022-11-28T05:08:34.230Z,98551.50
2022-11-28T05:11:09.533Z,98547.19
2022-11-28T05:14:03.538Z,98559.91
2022-11-28T05:16:50.055Z,98559.59
2022-11-28T05:19:22.399Z,98576.03
2022-11-28T05:21:59.169Z,98576.34
2022-11-28T05:25:52.646Z,98579.06
2022-11-28T05:28:40.687Z,98585.28
2022-11-28T05:31:24.525Z,98585.00
2022-11-28T05:34:38.052Z,98587.94
2022-11-28T05:42:18.305Z,98586.06
2022-11-28T05:45:01.292Z,98583.72
2022-11-28T05:47:34.985Z,98589.88
2022-11-28T05:50:22.649Z,98576.91
2022-11-28T05:57:55.209Z,98592.06
2022-11-28T06:00:43.354Z,98598.50
2022-11-28T06:03:20.925Z,98606.25
2022-11-28T06:05:56.869Z,98614.56
2022-11-28T06:08:30.594Z,98609.72
2022-11-28T06:11:11.269Z,98607.31
2022-11-28T06:13:42.606Z,98611.56
2022-11-28T06:16:18.392Z,98616.19
2022-11-28T06:22:33.591Z,98606.13
2022-11-28T06:25:59.182Z,98615.88
2022-11-28T06:28:49.767Z,98618.28
2022-11-28T06:35:32.483Z,98612.72
2022-11-28T06:49:58.884Z,98614.66
2022-11-28T06:51:46.594Z,98625.00
2022-11-28T06:54:19.911Z,98623.69
2022-11-28T06:59:42.052Z,98626.41
2022-11-28T07:02:17.850Z,98647.69
2022-11-28T07:04:49.219Z,98642.00
2022-11-28T07:07:18.859Z,98645.50
2022-11-28T07:09:54.962Z,98646.03
2022-11-28T07:12:33.753Z,98639.13
2022-11-28T07:15:03.226Z,98646.25
2022-11-28T07:17:35.366Z,98652.94
2022-11-28T07:20:15.028Z,98658.81
2022-11-28T07:22:58.083Z,98657.53
2022-11-28T07:25:38.947Z,98661.38
2022-11-28T07:28:21.987Z,98674.78
2022-11-28T07:31:17.749Z,98672.59
2022-11-28T07:34:21.979Z,98680.75
2022-11-28T08:06:25.628Z,98690.69
2022-11-28T08:09:09.620Z,98693.00
2022-11-28T08:12:31.118Z,98691.19
2022-11-28T08:26:29.258Z,98696.44
2022-11-28T08:29:13.236Z,98707.50
2022-11-28T08:31:45.014Z,98717.78
2022-11-28T08:34:27.807Z,98720.81
2022-11-28T08:37:06.758Z,98726.16
2022-11-28T08:39:46.531Z,98726.72
2022-11-28T08:42:30.383Z,98730.78
2022-11-28T08:45:17.507Z,98736.19
2022-11-28T08:47:51.218Z,98741.66
2022-11-28T08:50:22.795Z,98747.56
2022-11-28T09:02:24.506Z,98747.59
2022-11-28T09:05:34.661Z,98745.94
2022-11-28T09:12:11.713Z,98752.31
2022-11-28T09:14:45.170Z,98754.47
2022-11-28T09:17:38.023Z,98754.78
2022-11-28T09:20:14.128Z,98756.34
2022-11-28T09:22:49.273Z,98751.63
2022-11-28T09:25:21.134Z,98751.34
2022-11-28T09:27:53.669Z,98767.28
2022-11-28T09:30:39.168Z,98757.34
2022-11-28T09:33:14.969Z,98766.56
2022-11-28T09:35:46.729Z,98775.72
2022-11-28T09:38:19.325Z,98771.34
2022-11-28T09:40:50.492Z,98776.19
2022-11-28T09:43:36.939Z,98788.25
2022-11-28T09:46:14.911Z,98796.34
2022-11-28T09:48:56.001Z,98796.16
2022-11-28T09:51:59.179Z,98799.16
2022-11-28T09:54:44.234Z,98796.59
2022-11-28T09:57:42.558Z,98797.91
2022-11-28T10:00:34.392Z,98801.91
2022-11-28T10:03:18.802Z,98799.19
2022-11-28T10:05:51.667Z,98793.53
2022-11-28T10:08:59.068Z,98797.31
2022-11-28T10:11:41.006Z,98805.97
2022-11-28T10:14:41.851Z,98808.19
2022-11-28T10:17:47.023Z,98815.88
2022-11-28T10:20:25.179Z,98816.50
2022-11-28T10:23:23.139Z,98817.88
2022-11-28T10:25:59.657Z,98829.88
2022-11-28T10:28:40.746Z,98835.41
2022-11-28T10:31:43.917Z,98838.97
2022-11-28T10:34:38.134Z,98838.75
2022-11-28T10:37:18.959Z,98847.94
2022-11-28T10:39:54.029Z,98850.66
2022-11-28T10:42:51.622Z,98857.72
2022-11-28T10:45:51.067Z,98846.63
2022-11-28T10:48:40.713Z,98850.16
2022-11-28T10:51:46.362Z,98855.00
2022-11-28T10:54:54.154Z,98860.97
2022-11-28T10:58:00.697Z,98868.56
2022-11-28T11:00:38.681Z,98876.69
2022-11-28T11:03:17.026Z,98882.63
2022-11-28T11:05:50.172Z,98887.13
2022-11-28T11:08:46.933Z,98899.03
2022-11-28T11:11:42.939Z,98903.63
2022-11-28T11:14:13.590Z,98913.28
2022-11-28T11:17:00.805Z,98916.28
2022-11-28T11:19:44.197Z,98923.03
2022-11-28T11:22:15.563Z,98925.00
2022-11-28T11:25:11.565Z,98939.34
2022-11-28T11:28:08.615Z,98946.63
2022-11-28T11:30:52.089Z,98951.75
2022-11-28T11:33:38.053Z,98958.69
2022-11-28T11:36:31.180Z,98957.63
2022-11-28T11:39:15.010Z,98959.91
2022-11-28T11:41:47.006Z,98954.38
2022-11-28T11:44:16.900Z,98970.84
2022-11-28T11:47:05.975Z,98993.84
2022-11-28T11:49:42.590Z,98981.41
2022-11-28T11:52:17.109Z,98995.38
2022-11-28T11:54:59.736Z,99013.91
2022-11-28T11:57:34.368Z,99011.72
2022-11-28T12:00:10.998Z,99018.16
2022-11-28T12:03:06.895Z,99033.47
2022-11-28T12:06:12.582Z,99035.09
2022-11-28T12:09:03.221Z,99054.91
2022-11-28T12:11:45.611Z,99042.66
2022-11-28T12:14:31.499Z,99049.63
2022-11-28T12:20:24.818Z,99070.22
2022-11-28T12:22:55.889Z,99082.34
2022-11-28T12:25:48.728Z,99083.97
2022-11-28T12:28:37.097Z,99093.50
2022-11-28T12:31:42.510Z,99114.66
2022-11-28T12:34:53.397Z,99106.44
2022-11-28T12:38:09.919Z,99152.13
2022-11-28T12:41:03.003Z,99162.09
2022-11-28T12:44:17.078Z,99171.81
2022-11-28T12:47:12.928Z,99173.03
2022-11-28T12:50:09.954Z,99173.66
2022-11-28T12:52:55.807Z,99195.72
2022-11-28T12:55:59.790Z,99193.59
2022-11-28T12:58:38.234Z,99225.16
2022-11-28T13:01:23.069Z,99238.66
2022-11-28T13:04:06.784Z,99241.06
2022-11-28T13:07:05.873Z,99241.19
2022-11-28T13:10:18.996Z,99266.19
2022-11-28T13:13:53.327Z,99299.94
2022-11-28T13:17:48.169Z,99294.91
2022-11-28T13:30:45.635Z,99322.41
2022-11-28T14:06:35.276Z,99421.91
2022-11-28T14:11:12.647Z,99440.38
2022-11-28T14:38:05.094Z,99494.91
2022-11-28T14:41:29.440Z,99520.19
2022-11-28T14:44:49.102Z,99531.38
2022-11-28T14:48:52.996Z,99509.28
2022-11-28T14:52:16.060Z,99510.19
2022-11-28T14:55:30.676Z,99507.94
2022-11-28T14:58:35.205Z,99516.16
2022-11-28T15:01:17.335Z,99530.59
2022-11-28T15:05:02.470Z,99534.75
2022-11-28T15:11:45.472Z,99541.25
2022-11-28T15:14:38.958Z,99537.56
2022-11-28T15:17:27.598Z,99554.94
2022-11-28T15:21:27.403Z,99529.13
2022-11-28T15:24:31.225Z,99531.53
2022-11-28T15:27:09.412Z,99535.72
2022-11-28T15:30:28.648Z,99526.81
2022-11-28T15:33:50.005Z,99542.78
2022-11-28T15:40:39.549Z,99569.38
2022-11-28T15:43:17.358Z,99559.41
2022-11-28T15:46:04.006Z,99568.09
2022-11-28T15:49:33.419Z,99562.81
2022-11-28T15:52:37.002Z,99546.38
2022-11-28T15:55:42.394Z,99550.63
2022-11-28T15:58:37.004Z,99567.59
2022-11-28T16:01:27.442Z,99584.47
2022-11-28T16:04:15.186Z,99581.31
2022-11-28T16:07:37.902Z,99574.28
2022-11-28T16:16:03.131Z,99540.53
2022-11-28T16:19:36.715Z,99565.34
2022-11-28T16:22:33.829Z,99568.84
2022-11-28T16:25:52.728Z,99573.34
2022-11-28T16:29:12.868Z,99567.50
2022-11-28T16:31:49.184Z,99562.69
2022-11-28T16:39:23.455Z,99559.00
2022-11-28T16:42:19.287Z,99557.84
2022-11-28T16:45:46.263Z,99578.88
2022-11-28T16:51:45.498Z,99563.06
2022-11-28T16:54:32.043Z,99569.78
2022-11-28T16:57:32.876Z,99568.69
2022-11-28T17:00:49.725Z,99584.06
2022-11-28T17:08:14.155Z,99584.69
2022-11-28T17:11:19.941Z,99596.25
2022-11-28T17:19:48.804Z,99604.53
2022-11-28T17:23:30.939Z,99615.34
2022-11-28T17:26:45.339Z,99612.50
2022-11-28T17:29:26.963Z,99607.06
2022-11-28T17:32:35.278Z,99604.16
2022-11-28T17:40:11.482Z,99596.22
2022-11-28T17:42:48.118Z,99598.84
2022-11-28T17:45:31.007Z,99607.53
2022-11-28T17:48:06.366Z,99601.38
2022-11-28T17:51:30.447Z,99602.41
2022-11-28T17:54:15.461Z,99612.69
2022-11-28T17:57:14.679Z,99604.69
2022-11-28T18:00:11.353Z,99609.13
2022-11-28T18:03:05.796Z,99615.72
2022-11-28T18:05:51.256Z,99622.31
2022-11-28T18:08:34.997Z,99605.97
2022-11-28T18:11:10.358Z,99610.41
2022-11-28T18:23:22.695Z,99611.38
2022-11-28T18:26:32.875Z,99619.13
2022-11-28T18:29:09.755Z,99626.31
2022-11-28T18:31:40.337Z,99618.34
2022-11-28T18:34:36.038Z,99622.41
2022-11-28T18:37:13.867Z,99619.72
2022-11-28T18:39:59.868Z,99614.72
2022-11-28T18:42:33.293Z,99628.66
2022-11-28T18:45:07.162Z,99632.78
2022-11-28T18:47:38.449Z,99637.78
2022-11-28T18:50:28.123Z,99642.81
2022-11-28T18:53:03.278Z,99649.00
2022-11-28T18:55:34.876Z,99648.81
2022-11-28T18:58:06.768Z,99664.22
2022-11-28T19:00:37.308Z,99672.84
2022-11-28T19:03:07.257Z,99670.91
2022-11-28T19:05:43.281Z,99666.34
2022-11-28T19:08:23.690Z,99670.09
2022-11-28T19:10:59.778Z,99678.91
2022-11-28T19:13:49.774Z,99684.47
2022-11-28T19:16:28.169Z,99688.63
2022-11-28T19:19:03.332Z,99687.16
2022-11-28T19:21:37.144Z,99683.06
2022-11-28T19:24:15.397Z,99686.00
2022-11-28T19:27:16.946Z,99699.72
2022-11-28T19:29:47.202Z,99702.06
2022-11-28T19:32:31.104Z,99695.28
2022-11-28T19:35:02.832Z,99705.41
2022-11-28T19:37:34.880Z,99705.47
2022-11-28T19:40:07.652Z,99707.63
2022-11-28T19:42:38.950Z,99709.63
2022-11-28T19:45:13.030Z,99712.16
2022-11-28T19:47:47.759Z,99718.81
2022-11-28T19:50:28.064Z,99731.06
2022-11-28T19:53:07.224Z,99730.53
2022-11-28T19:55:40.183Z,99737.19
2022-11-28T19:58:15.170Z,99741.84
2022-11-28T20:00:48.808Z,99742.22
2022-11-28T20:03:19.753Z,99750.34
2022-11-28T20:05:50.090Z,99758.78
2022-11-28T20:08:26.367Z,99758.84
2022-11-28T20:11:00.207Z,99766.31
2022-11-28T20:13:39.858Z,99777.75
2022-11-28T20:16:13.753Z,99781.09
2022-11-28T20:18:44.530Z,99783.72
2022-11-28T20:21:33.858Z,99789.63
2022-11-28T20:24:09.569Z,99796.22
2022-11-28T20:26:43.182Z,99797.25
2022-11-28T20:29:41.850Z,99795.09
2022-11-28T20:32:15.761Z,99810.13
2022-11-28T20:34:46.198Z,99807.34
2022-11-28T20:37:39.743Z,99825.44
2022-11-28T20:40:14.338Z,99836.31
2022-11-28T20:42:45.770Z,99830.88
2022-11-28T20:45:18.351Z,99837.91
2022-11-28T20:47:54.699Z,99845.47
2022-11-28T20:50:42.740Z,99848.00
2022-11-28T20:53:13.822Z,99848.44
2022-11-28T20:56:07.490Z,99850.66
2022-11-28T20:58:41.797Z,99846.06
2022-11-28T21:01:22.273Z,99856.03
2022-11-28T21:03:53.778Z,99850.63
2022-11-28T21:06:25.156Z,99856.81
2022-11-28T21:08:59.719Z,99878.25
2022-11-28T21:11:55.855Z,99871.44
2022-11-28T21:14:23.151Z,99877.88
2022-11-28T21:16:53.527Z,99882.72
2022-11-28T21:19:35.702Z,99873.59
2022-11-28T21:22:19.485Z,99889.41
2022-11-28T21:24:51.956Z,99882.66
2022-11-28T21:27:41.197Z,99888.16
2022-11-28T21:30:13.177Z,99887.16
2022-11-28T21:32:46.187Z,99884.69
2022-11-28T21:35:22.598Z,99897.94
2022-11-28T21:38:18.159Z,99906.34
2022-11-28T21:41:07.596Z,99918.25
2022-11-28T21:43:45.345Z,99924.31
2022-11-28T21:46:37.044Z,99931.28
2022-11-28T21:50:20.298Z,99936.34
2022-11-28T21:53:43.606Z,99953.09
2022-11-28T21:57:04.335Z,99969.97
2022-11-28T22:12:42.992Z,99968.44
2022-11-28T22:18:53.275Z,99980.75
2022-11-28T22:22:03.983Z,99993.56
2022-11-28T22:25:42.940Z,100005.44
2022-11-28T22:45:57.286Z,100028.06
2022-11-28T22:54:44.780Z,100049.75
2022-11-28T22:58:58.218Z,100043.09
2022-11-28T23:12:12.906Z,100068.13
2022-11-28T23:15:51.211Z,100070.38
2022-11-28T23:18:47.096Z,100076.50
2022-11-28T23:21:51.737Z,100082.41
2022-11-28T23:24:48.101Z,100087.50
2022-11-28T23:27:52.806Z,100096.47
2022-11-28T23:30:23.789Z,100099.16
2022-11-28T23:33:55.036Z,100112.41
2022-11-28T23:44:41.751Z,100126.03
2022-11-28T23:47:19.805Z,100130.34
2022-11-28T23:49:59.124Z,100128.34
2022-11-28T23:53:04.688Z,100127.13
2022-11-28T23:57:21.962Z,100120.25
